KCEC/CEC METAR and TAF weather

Enter ICAO airport designator
Station Type Date Time Source
KCEC METAR 2018/04/27 00:56 UTC NOAA

KCEC 270056Z AUTO 22004KT 10SM FEW014 OVC020 11/08 A3002 RMK AO2 SLP167 T01110083


Station Type Date Time Source
KCEC Decoded METAR 2018/04/27 00:56 UTC NOAA

CRESCENT CITY MC NAMARA, CA, United States (KCEC) 41-47N 124-14W
Apr 26, 2018 - 08:56 PM EDT / 2018.04.27 0056 UTC
Wind: from the SW (220 degrees) at 5 MPH (4 KT):0
Visibility: 10 mile(s):0
Sky conditions: overcast
Temperature: 52.0 F (11.1 C)
Dew Point: 46.9 F (8.3 C)
Relative Humidity: 82%
Pressure (altimeter): 30.02 in. Hg (1016 hPa)
ob: KCEC 270056Z AUTO 22004KT 10SM FEW014 OVC020 11/08 A3002 RMK AO2 SLP167 T01110083
cycle: 1

Station Type Date Time Source
KCEC TAF 2018/04/26 18:42 UTC NOAA

TAF KCEC 261740Z 2618/2718 19005KT 6SM BR SCT008 OVC015
FM262000 27007KT P6SM BKN022
TEMPO 2620/2624 OVC019
FM270300 18005KT 6SM BR VCSH SCT006 OVC025
FM271500 VRB03KT 5SM -SHRA BR BKN015 OVC050


Example: see airport list